UAL2377 KLAX-KIAH
Flight info
| Callsign | UAL2377 |
|---|---|
| Flight time | 3h 42m |
| Altitude | 35000 |
| Route | DOTSS2 CNERY BLH SPTFR Q4 FUSCO DIESL TTORO3 |
| Aircraft | B738/M-SDE2E3FGHIRWXY/LB1 |
Departure
| Time | 2026-04-22 20:33 |
|---|---|
| Airport | Los Angeles International Airport (KLAX) |
Arrival
| Time | 2026-04-23 00:15 |
|---|---|
| Airport | George Bush Intercontinental Airport (KIAH) |
| Time | Latitude | Longitude | Altitude | Speed | Heading |
|---|---|---|---|---|---|
| 2026-04-22 20:05 | 33.94153 | -118.39894 | 125 ft | 0 kts | 270° |
| 2026-04-22 20:20 | 33.94153 | -118.39889 | 125 ft | 2 kts | 270° |
| 2026-04-22 20:20 | 33.94151 | -118.39869 | 121 ft | 2 kts | 287° |
| 2026-04-22 20:21 | 33.94146 | -118.39852 | 123 ft | 2 kts | 302° |
| 2026-04-22 20:21 | 33.94138 | -118.39840 | 123 ft | 1 kts | 321° |
| 2026-04-22 20:21 | 33.94125 | -118.39831 | 124 ft | 2 kts | 347° |
| 2026-04-22 20:21 | 33.94112 | -118.39828 | 121 ft | 1 kts | 356° |
| 2026-04-22 20:22 | 33.94111 | -118.39828 | 120 ft | 0 kts | 355° |
| 2026-04-22 20:25 | 33.94110 | -118.39828 | 125 ft | 2 kts | 355° |
| 2026-04-22 20:25 | 33.94099 | -118.39837 | 122 ft | 0 kts | 131° |
| 2026-04-22 20:26 | 33.94086 | -118.39828 | 119 ft | 2 kts | 161° |
| 2026-04-22 20:26 | 33.94076 | -118.39826 | 123 ft | 0 kts | 172° |
| 2026-04-22 20:26 | 33.94030 | -118.39824 | 122 ft | 13 kts | 175° |
| 2026-04-22 20:27 | 33.93933 | -118.39797 | 123 ft | 14 kts | 145° |
| 2026-04-22 20:27 | 33.93910 | -118.39694 | 125 ft | 13 kts | 83° |
| 2026-04-22 20:27 | 33.93922 | -118.39570 | 125 ft | 19 kts | 83° |
| 2026-04-22 20:27 | 33.93941 | -118.39381 | 120 ft | 27 kts | 83° |
| 2026-04-22 20:28 | 33.93967 | -118.39143 | 124 ft | 29 kts | 83° |
| 2026-04-22 20:28 | 33.93990 | -118.38915 | 125 ft | 16 kts | 83° |
| 2026-04-22 20:28 | 33.93993 | -118.38885 | 125 ft | 8 kts | 83° |
| 2026-04-22 20:28 | 33.93999 | -118.38827 | 121 ft | 13 kts | 83° |
| 2026-04-22 20:29 | 33.94003 | -118.38785 | 125 ft | 3 kts | 83° |
| 2026-04-22 20:29 | 33.94011 | -118.38707 | 125 ft | 24 kts | 83° |
| 2026-04-22 20:29 | 33.94032 | -118.38502 | 125 ft | 0 kts | 83° |
| 2026-04-22 20:29 | 33.94033 | -118.38486 | 125 ft | 7 kts | 83° |
| 2026-04-22 20:30 | 33.94044 | -118.38376 | 125 ft | 16 kts | 89° |
| 2026-04-22 20:30 | 33.94041 | -118.38356 | 123 ft | 0 kts | 109° |
| 2026-04-22 20:31 | 33.94041 | -118.38355 | 123 ft | 0 kts | 109° |
| 2026-04-22 20:31 | 33.94034 | -118.38345 | 122 ft | 3 kts | 129° |
| 2026-04-22 20:31 | 33.93989 | -118.38327 | 123 ft | 12 kts | 182° |
| 2026-04-22 20:32 | 33.93945 | -118.38413 | 125 ft | 17 kts | 263° |
| 2026-04-22 20:32 | 33.93911 | -118.38743 | 120 ft | 78 kts | 263° |
| 2026-04-22 20:32 | 33.93811 | -118.39704 | 122 ft | 151 kts | 262° |
| 2026-04-22 20:32 | 33.93670 | -118.41143 | 573 ft | 179 kts | 260° |
| 2026-04-22 20:33 | 33.93515 | -118.42681 | 1495 ft | 194 kts | 263° |
| 2026-04-22 20:33 | 33.93367 | -118.44279 | 2557 ft | 198 kts | 262° |
| 2026-04-22 20:33 | 33.93034 | -118.45984 | 2787 ft | 214 kts | 243° |
| 2026-04-22 20:33 | 33.92190 | -118.47486 | 3241 ft | 221 kts | 233° |
| 2026-04-22 20:34 | 33.91229 | -118.48939 | 3657 ft | 229 kts | 232° |
| 2026-04-22 20:34 | 33.90187 | -118.50406 | 4066 ft | 232 kts | 231° |
| 2026-04-22 20:34 | 33.89127 | -118.51883 | 4487 ft | 235 kts | 232° |
| 2026-04-22 20:34 | 33.88062 | -118.53384 | 4877 ft | 238 kts | 232° |
| 2026-04-22 20:35 | 33.86917 | -118.54953 | 4975 ft | 264 kts | 225° |
| 2026-04-22 20:35 | 33.85288 | -118.55991 | 4977 ft | 272 kts | 192° |
| 2026-04-22 20:35 | 33.83387 | -118.56011 | 4994 ft | 277 kts | 173° |
| 2026-04-22 20:35 | 33.81487 | -118.55525 | 5256 ft | 281 kts | 167° |
| 2026-04-22 20:36 | 33.79589 | -118.54935 | 6049 ft | 282 kts | 167° |
| 2026-04-22 20:36 | 33.77673 | -118.54351 | 6797 ft | 286 kts | 168° |
| 2026-04-22 20:36 | 33.75757 | -118.53792 | 7532 ft | 288 kts | 169° |
| 2026-04-22 20:36 | 33.73795 | -118.53233 | 8241 ft | 292 kts | 169° |
| 2026-04-22 20:37 | 33.71806 | -118.52653 | 8958 ft | 296 kts | 165° |
| 2026-04-22 20:37 | 33.70000 | -118.51411 | 9648 ft | 307 kts | 137° |
| 2026-04-22 20:37 | 33.68812 | -118.49265 | 10298 ft | 315 kts | 113° |
| 2026-04-22 20:37 | 33.68025 | -118.46716 | 10513 ft | 337 kts | 109° |
| 2026-04-22 20:38 | 33.67261 | -118.43962 | 10703 ft | 358 kts | 109° |
| 2026-04-22 20:38 | 33.66450 | -118.41082 | 11159 ft | 368 kts | 109° |
| 2026-04-22 20:38 | 33.65611 | -118.38197 | 11725 ft | 373 kts | 110° |
| 2026-04-22 20:38 | 33.64748 | -118.35244 | 12367 ft | 377 kts | 108° |
| 2026-04-22 20:39 | 33.64324 | -118.32125 | 12931 ft | 383 kts | 90° |
| 2026-04-22 20:39 | 33.64327 | -118.28907 | 13517 ft | 389 kts | 89° |
| 2026-04-22 20:39 | 33.64369 | -118.25644 | 14065 ft | 394 kts | 88° |
| 2026-04-22 20:39 | 33.64412 | -118.22325 | 14571 ft | 399 kts | 89° |
| 2026-04-22 20:40 | 33.64441 | -118.18977 | 15104 ft | 404 kts | 89° |
| 2026-04-22 20:40 | 33.64458 | -118.15587 | 15616 ft | 408 kts | 89° |
| 2026-04-22 20:40 | 33.64465 | -118.12159 | 16136 ft | 413 kts | 90° |
| 2026-04-22 20:40 | 33.64466 | -118.08693 | 16646 ft | 418 kts | 90° |
| 2026-04-22 20:41 | 33.64463 | -118.05184 | 17163 ft | 423 kts | 90° |
| 2026-04-22 20:41 | 33.64458 | -118.01687 | 17709 ft | 427 kts | 90° |
| 2026-04-22 20:41 | 33.64452 | -117.98060 | 18229 ft | 432 kts | 90° |
| 2026-04-22 20:41 | 33.64446 | -117.94437 | 18697 ft | 436 kts | 90° |
| 2026-04-22 20:42 | 33.64439 | -117.90864 | 19179 ft | 439 kts | 90° |
| 2026-04-22 20:42 | 33.64431 | -117.87162 | 19696 ft | 441 kts | 90° |
| 2026-04-22 20:42 | 33.64422 | -117.83472 | 20192 ft | 443 kts | 91° |
| 2026-04-22 20:42 | 33.64374 | -117.79759 | 20649 ft | 446 kts | 96° |
| 2026-04-22 20:43 | 33.63759 | -117.76126 | 21080 ft | 445 kts | 109° |
| 2026-04-22 20:43 | 33.62865 | -117.72567 | 21558 ft | 447 kts | 110° |
| 2026-04-22 20:43 | 33.61926 | -117.68992 | 22002 ft | 450 kts | 111° |
| 2026-04-22 20:43 | 33.60986 | -117.65402 | 22452 ft | 453 kts | 111° |
| 2026-04-22 20:44 | 33.60056 | -117.61781 | 22904 ft | 456 kts | 110° |
| 2026-04-22 20:44 | 33.59138 | -117.58138 | 23346 ft | 458 kts | 110° |
| 2026-04-22 20:44 | 33.58221 | -117.54458 | 23760 ft | 461 kts | 110° |
| 2026-04-22 20:44 | 33.57305 | -117.50757 | 24107 ft | 464 kts | 110° |
| 2026-04-22 20:45 | 33.56386 | -117.47040 | 24444 ft | 467 kts | 110° |
| 2026-04-22 20:45 | 33.55471 | -117.43348 | 24782 ft | 470 kts | 110° |
| 2026-04-22 20:45 | 33.54539 | -117.39594 | 25115 ft | 473 kts | 110° |
| 2026-04-22 20:45 | 33.53595 | -117.35799 | 25457 ft | 475 kts | 110° |
| 2026-04-22 20:46 | 33.51690 | -117.28165 | 26079 ft | 481 kts | 110° |
| 2026-04-22 20:46 | 33.50739 | -117.24316 | 26370 ft | 484 kts | 107° |
| 2026-04-22 20:46 | 33.50230 | -117.20299 | 26647 ft | 491 kts | 94° |
| 2026-04-22 20:47 | 33.50141 | -117.16202 | 26967 ft | 493 kts | 91° |
| 2026-04-22 20:47 | 33.50146 | -117.12084 | 27253 ft | 496 kts | 90° |
| 2026-04-22 20:47 | 33.50170 | -117.07936 | 27536 ft | 499 kts | 90° |
| 2026-04-22 20:47 | 33.50177 | -117.03769 | 27821 ft | 502 kts | 91° |
| 2026-04-22 20:48 | 33.50157 | -116.99609 | 28101 ft | 504 kts | 91° |
| 2026-04-22 20:48 | 33.50114 | -116.95435 | 28383 ft | 506 kts | 91° |
| 2026-04-22 20:48 | 33.50054 | -116.91198 | 28652 ft | 509 kts | 91° |
| 2026-04-22 20:48 | 33.49986 | -116.86954 | 28913 ft | 511 kts | 91° |
| 2026-04-22 20:49 | 33.49916 | -116.82692 | 29175 ft | 514 kts | 91° |
| 2026-04-22 20:49 | 33.49844 | -116.78398 | 29427 ft | 516 kts | 91° |
| 2026-04-22 20:49 | 33.49772 | -116.74096 | 29673 ft | 519 kts | 91° |
| 2026-04-22 20:49 | 33.49700 | -116.69767 | 29913 ft | 521 kts | 91° |
| 2026-04-22 20:50 | 33.49551 | -116.60998 | 30064 ft | 532 kts | 91° |
| 2026-04-22 20:50 | 33.49393 | -116.52048 | 30192 ft | 542 kts | 91° |
| 2026-04-22 20:51 | 33.49312 | -116.47584 | 30299 ft | 546 kts | 91° |
| 2026-04-22 20:51 | 33.49227 | -116.43023 | 30371 ft | 549 kts | 91° |
| 2026-04-22 20:51 | 33.49079 | -116.33847 | 30584 ft | 552 kts | 91° |
| 2026-04-22 20:52 | 33.49015 | -116.29244 | 30720 ft | 553 kts | 91° |
| 2026-04-22 20:52 | 33.48950 | -116.24669 | 30872 ft | 554 kts | 91° |
| 2026-04-22 20:52 | 33.48882 | -116.20110 | 31040 ft | 554 kts | 91° |
| 2026-04-22 20:52 | 33.48807 | -116.15402 | 31161 ft | 555 kts | 91° |
| 2026-04-22 20:53 | 33.48658 | -116.06199 | 31384 ft | 558 kts | 90° |
| 2026-04-22 20:53 | 33.49006 | -116.01575 | 31484 ft | 558 kts | 75° |
| 2026-04-22 20:53 | 33.50179 | -115.97169 | 31646 ft | 554 kts | 67° |
| 2026-04-22 20:54 | 33.51530 | -115.92845 | 31831 ft | 554 kts | 66° |
| 2026-04-22 20:54 | 33.52891 | -115.88524 | 31952 ft | 556 kts | 66° |
| 2026-04-22 20:54 | 33.54230 | -115.84168 | 32071 ft | 557 kts | 67° |
| 2026-04-22 20:54 | 33.55535 | -115.79795 | 32237 ft | 558 kts | 68° |
| 2026-04-22 20:55 | 33.56813 | -115.75407 | 32383 ft | 558 kts | 68° |
| 2026-04-22 20:55 | 33.58066 | -115.71066 | 32526 ft | 558 kts | 68° |
| 2026-04-22 20:55 | 33.59352 | -115.66607 | 32641 ft | 559 kts | 68° |
| 2026-04-22 20:55 | 33.60611 | -115.62249 | 32770 ft | 560 kts | 68° |
| 2026-04-22 20:56 | 33.61886 | -115.57841 | 32930 ft | 560 kts | 69° |
| 2026-04-22 20:56 | 33.62810 | -115.53298 | 33030 ft | 564 kts | 84° |
| 2026-04-22 20:56 | 33.62832 | -115.48591 | 33196 ft | 563 kts | 94° |
| 2026-04-22 20:56 | 33.62593 | -115.43907 | 33359 ft | 564 kts | 95° |
| 2026-04-22 20:57 | 33.62072 | -115.34494 | 33543 ft | 566 kts | 95° |
| 2026-04-22 20:57 | 33.61845 | -115.29789 | 33714 ft | 565 kts | 94° |
| 2026-04-22 20:57 | 33.61642 | -115.25076 | 33842 ft | 566 kts | 94° |
| 2026-04-22 20:58 | 33.61269 | -115.15680 | 34050 ft | 568 kts | 94° |
| 2026-04-22 20:58 | 33.61082 | -115.10956 | 34193 ft | 567 kts | 94° |
| 2026-04-22 20:58 | 33.60891 | -115.06229 | 34336 ft | 567 kts | 94° |
| 2026-04-22 20:59 | 33.60696 | -115.01529 | 34462 ft | 567 kts | 94° |
| 2026-04-22 20:59 | 33.60496 | -114.96786 | 34571 ft | 567 kts | 94° |
| 2026-04-22 20:59 | 33.60294 | -114.92068 | 34695 ft | 567 kts | 94° |
| 2026-04-22 20:59 | 33.60091 | -114.87348 | 34826 ft | 567 kts | 94° |
| 2026-04-22 21:00 | 33.59886 | -114.82626 | 34961 ft | 566 kts | 94° |
| 2026-04-22 21:00 | 33.59675 | -114.77914 | 35024 ft | 566 kts | 95° |
| 2026-04-22 21:00 | 33.58387 | -114.68692 | 35037 ft | 564 kts | 106° |
| 2026-04-22 21:01 | 33.56563 | -114.59543 | 35026 ft | 565 kts | 107° |
| 2026-04-22 21:01 | 33.54742 | -114.50372 | 35032 ft | 566 kts | 106° |
| 2026-04-22 21:02 | 33.52978 | -114.41176 | 35019 ft | 566 kts | 105° |
| 2026-04-22 21:02 | 33.51232 | -114.31979 | 35024 ft | 566 kts | 105° |
| 2026-04-22 21:03 | 33.49479 | -114.22795 | 35014 ft | 563 kts | 105° |
| 2026-04-22 21:03 | 33.47723 | -114.13677 | 35024 ft | 561 kts | 105° |
| 2026-04-22 21:04 | 33.45975 | -114.04649 | 35016 ft | 560 kts | 105° |
| 2026-04-22 21:04 | 33.44213 | -113.95579 | 35023 ft | 559 kts | 106° |
| 2026-04-22 21:05 | 33.42444 | -113.86506 | 35037 ft | 560 kts | 106° |
| 2026-04-22 21:05 | 33.40667 | -113.77426 | 35054 ft | 561 kts | 106° |
| 2026-04-22 21:06 | 33.38743 | -113.68454 | 35049 ft | 560 kts | 110° |
| 2026-04-22 21:06 | 33.36295 | -113.59614 | 35048 ft | 559 kts | 113° |
| 2026-04-22 21:07 | 33.33749 | -113.50814 | 35036 ft | 560 kts | 112° |
| 2026-04-22 21:07 | 33.31271 | -113.42050 | 35018 ft | 560 kts | 112° |
| 2026-04-22 21:08 | 33.28814 | -113.33210 | 34988 ft | 561 kts | 112° |
| 2026-04-22 21:08 | 33.26354 | -113.24356 | 34981 ft | 561 kts | 112° |
| 2026-04-22 21:09 | 33.23884 | -113.15516 | 34978 ft | 561 kts | 112° |
| 2026-04-22 21:09 | 33.21402 | -113.06674 | 34973 ft | 561 kts | 112° |
| 2026-04-22 21:10 | 33.18932 | -112.97907 | 34983 ft | 561 kts | 112° |
| 2026-04-22 21:10 | 33.16437 | -112.89074 | 34984 ft | 561 kts | 112° |
| 2026-04-22 21:11 | 33.13933 | -112.80234 | 34982 ft | 562 kts | 112° |
| 2026-04-22 21:11 | 33.11425 | -112.71404 | 34985 ft | 562 kts | 112° |
| 2026-04-22 21:12 | 33.08911 | -112.62584 | 34994 ft | 561 kts | 112° |
| 2026-04-22 21:12 | 33.06413 | -112.53841 | 34977 ft | 560 kts | 112° |
| 2026-04-22 21:13 | 33.03937 | -112.45051 | 34986 ft | 560 kts | 111° |
| 2026-04-22 21:13 | 33.01533 | -112.36232 | 34976 ft | 559 kts | 111° |
| 2026-04-22 21:14 | 32.99134 | -112.27423 | 34972 ft | 559 kts | 111° |
| 2026-04-22 21:14 | 32.96732 | -112.18684 | 34981 ft | 559 kts | 111° |
| 2026-04-22 21:15 | 32.94303 | -112.09906 | 34984 ft | 558 kts | 111° |
| 2026-04-22 21:15 | 32.91865 | -112.01129 | 34994 ft | 558 kts | 111° |
| 2026-04-22 21:16 | 32.89428 | -111.92378 | 34997 ft | 557 kts | 111° |
| 2026-04-22 21:16 | 32.86985 | -111.83629 | 35007 ft | 557 kts | 111° |
| 2026-04-22 21:17 | 32.84553 | -111.74944 | 35006 ft | 557 kts | 111° |
| 2026-04-22 21:17 | 32.82099 | -111.66207 | 34996 ft | 557 kts | 111° |
| 2026-04-22 21:18 | 32.79640 | -111.57480 | 34981 ft | 557 kts | 111° |
| 2026-04-22 21:18 | 32.77175 | -111.48759 | 34966 ft | 556 kts | 111° |
| 2026-04-22 21:19 | 32.74709 | -111.40056 | 34989 ft | 556 kts | 111° |
| 2026-04-22 21:19 | 32.72250 | -111.31420 | 34995 ft | 554 kts | 111° |
| 2026-04-22 21:20 | 32.69775 | -111.22737 | 34991 ft | 555 kts | 111° |
| 2026-04-22 21:20 | 32.67294 | -111.14053 | 34986 ft | 556 kts | 111° |
| 2026-04-22 21:21 | 32.64801 | -111.05362 | 34974 ft | 556 kts | 111° |
| 2026-04-22 21:21 | 32.62319 | -110.96733 | 34960 ft | 557 kts | 111° |
| 2026-04-22 21:22 | 32.59812 | -110.88044 | 34948 ft | 556 kts | 111° |
| 2026-04-22 21:22 | 32.57300 | -110.79366 | 34943 ft | 557 kts | 111° |
| 2026-04-22 21:23 | 32.54782 | -110.70689 | 34935 ft | 557 kts | 111° |
| 2026-04-22 21:23 | 32.52259 | -110.62021 | 34944 ft | 556 kts | 111° |
| 2026-04-22 21:24 | 32.49750 | -110.53426 | 34937 ft | 555 kts | 111° |
| 2026-04-22 21:24 | 32.47220 | -110.44784 | 34939 ft | 555 kts | 111° |
| 2026-04-22 21:25 | 32.44685 | -110.36150 | 34934 ft | 555 kts | 111° |
| 2026-04-22 21:25 | 32.42142 | -110.27513 | 34923 ft | 555 kts | 111° |
| 2026-04-22 21:26 | 32.39612 | -110.18945 | 34930 ft | 554 kts | 111° |
| 2026-04-22 21:26 | 32.37064 | -110.10343 | 34929 ft | 554 kts | 111° |
| 2026-04-22 21:27 | 32.34514 | -110.01759 | 34923 ft | 553 kts | 111° |
| 2026-04-22 21:27 | 32.31963 | -109.93184 | 34929 ft | 552 kts | 111° |
| 2026-04-22 21:28 | 32.29492 | -109.84648 | 34920 ft | 553 kts | 107° |
| 2026-04-22 21:28 | 32.28151 | -109.75702 | 34925 ft | 554 kts | 97° |
| 2026-04-22 21:29 | 32.27165 | -109.66677 | 34905 ft | 554 kts | 97° |
| 2026-04-22 21:29 | 32.26147 | -109.57665 | 34914 ft | 553 kts | 97° |
| 2026-04-22 21:30 | 32.25072 | -109.48732 | 34899 ft | 552 kts | 98° |
| 2026-04-22 21:30 | 32.23965 | -109.39763 | 34904 ft | 551 kts | 98° |
| 2026-04-22 21:31 | 32.22852 | -109.30804 | 34901 ft | 551 kts | 98° |
| 2026-04-22 21:31 | 32.21740 | -109.21861 | 34896 ft | 550 kts | 98° |
| 2026-04-22 21:32 | 32.20630 | -109.12978 | 34899 ft | 550 kts | 98° |
| 2026-04-22 21:32 | 32.19509 | -109.04058 | 34921 ft | 550 kts | 98° |
| 2026-04-22 21:33 | 32.18383 | -108.95137 | 34957 ft | 549 kts | 98° |
| 2026-04-22 21:33 | 32.17254 | -108.86262 | 34992 ft | 548 kts | 98° |
| 2026-04-22 21:34 | 32.16113 | -108.77344 | 35013 ft | 548 kts | 98° |
| 2026-04-22 21:34 | 32.14977 | -108.68518 | 35003 ft | 547 kts | 98° |
| 2026-04-22 21:35 | 32.13830 | -108.59651 | 34992 ft | 546 kts | 98° |
| 2026-04-22 21:35 | 32.12678 | -108.50792 | 34961 ft | 546 kts | 98° |
| 2026-04-22 21:36 | 32.11521 | -108.41949 | 34914 ft | 546 kts | 99° |
| 2026-04-22 21:36 | 32.10366 | -108.33162 | 34885 ft | 545 kts | 99° |
| 2026-04-22 21:37 | 32.09197 | -108.24329 | 34885 ft | 545 kts | 99° |
| 2026-04-22 21:37 | 32.08023 | -108.15499 | 34875 ft | 545 kts | 99° |
| 2026-04-22 21:38 | 32.06844 | -108.06681 | 34884 ft | 544 kts | 99° |
| 2026-04-22 21:38 | 32.05660 | -107.97876 | 34917 ft | 544 kts | 99° |
| 2026-04-22 21:39 | 32.04481 | -107.89147 | 34943 ft | 543 kts | 99° |
| 2026-04-22 21:39 | 32.03286 | -107.80359 | 34958 ft | 543 kts | 99° |
| 2026-04-22 21:40 | 32.02087 | -107.71580 | 34954 ft | 542 kts | 99° |
| 2026-04-22 21:40 | 32.00883 | -107.62813 | 34937 ft | 542 kts | 99° |
| 2026-04-22 21:41 | 31.99673 | -107.54050 | 34897 ft | 541 kts | 99° |
| 2026-04-22 21:41 | 31.98468 | -107.45366 | 34857 ft | 541 kts | 99° |
| 2026-04-22 21:42 | 31.97250 | -107.36636 | 34852 ft | 540 kts | 99° |
| 2026-04-22 21:42 | 31.96027 | -107.27913 | 34842 ft | 539 kts | 99° |
| 2026-04-22 21:43 | 31.94800 | -107.19207 | 34840 ft | 539 kts | 99° |
| 2026-04-22 21:43 | 31.93577 | -107.10575 | 34849 ft | 538 kts | 99° |
| 2026-04-22 21:44 | 31.92342 | -107.01898 | 34896 ft | 537 kts | 99° |
| 2026-04-22 21:44 | 31.91105 | -106.93252 | 34958 ft | 535 kts | 99° |
| 2026-04-22 21:45 | 31.89863 | -106.84619 | 35012 ft | 534 kts | 99° |
| 2026-04-22 21:45 | 31.88628 | -106.76067 | 35035 ft | 533 kts | 99° |
| 2026-04-22 21:46 | 31.87380 | -106.67476 | 35036 ft | 532 kts | 99° |
| 2026-04-22 21:46 | 31.86128 | -106.58899 | 35032 ft | 531 kts | 99° |
| 2026-04-22 21:47 | 31.84874 | -106.50342 | 35039 ft | 531 kts | 99° |
| 2026-04-22 21:47 | 31.83623 | -106.41850 | 35035 ft | 530 kts | 99° |
| 2026-04-22 21:48 | 31.82363 | -106.33336 | 35039 ft | 529 kts | 99° |
| 2026-04-22 21:48 | 31.81127 | -106.24820 | 35024 ft | 527 kts | 98° |
| 2026-04-22 21:49 | 31.80112 | -106.16293 | 34965 ft | 526 kts | 96° |
| 2026-04-22 21:49 | 31.79160 | -106.07779 | 34919 ft | 525 kts | 96° |
| 2026-04-22 21:50 | 31.78184 | -105.99338 | 34871 ft | 524 kts | 97° |
| 2026-04-22 21:50 | 31.77173 | -105.90863 | 34844 ft | 523 kts | 97° |
| 2026-04-22 21:51 | 31.76150 | -105.82412 | 34850 ft | 522 kts | 97° |
| 2026-04-22 21:52 | 31.74611 | -105.69755 | 34851 ft | 521 kts | 97° |
| 2026-04-22 21:52 | 31.73590 | -105.61405 | 34863 ft | 520 kts | 97° |
| 2026-04-22 21:53 | 31.72558 | -105.53009 | 34854 ft | 519 kts | 97° |
| 2026-04-22 21:53 | 31.71522 | -105.44625 | 34865 ft | 518 kts | 97° |
| 2026-04-22 21:54 | 31.70480 | -105.36243 | 34858 ft | 518 kts | 97° |
| 2026-04-22 21:54 | 31.69441 | -105.27929 | 34865 ft | 518 kts | 97° |
| 2026-04-22 21:55 | 31.68390 | -105.19572 | 34866 ft | 518 kts | 97° |
| 2026-04-22 21:55 | 31.67333 | -105.11204 | 34856 ft | 518 kts | 97° |
| 2026-04-22 21:56 | 31.66270 | -105.02834 | 34857 ft | 518 kts | 97° |
| 2026-04-22 21:56 | 31.65201 | -104.94466 | 34866 ft | 518 kts | 97° |
| 2026-04-22 21:57 | 31.64135 | -104.86157 | 34872 ft | 519 kts | 98° |
| 2026-04-22 21:57 | 31.63054 | -104.77782 | 34877 ft | 519 kts | 98° |
| 2026-04-22 21:58 | 31.61966 | -104.69399 | 34869 ft | 519 kts | 98° |
| 2026-04-22 21:58 | 31.60873 | -104.61023 | 34873 ft | 519 kts | 98° |
| 2026-04-22 21:59 | 31.59783 | -104.52709 | 34871 ft | 519 kts | 98° |
| 2026-04-22 21:59 | 31.58681 | -104.44344 | 34870 ft | 519 kts | 98° |
| 2026-04-22 22:00 | 31.57574 | -104.35987 | 34863 ft | 518 kts | 98° |
| 2026-04-22 22:00 | 31.56464 | -104.27646 | 34853 ft | 518 kts | 98° |
| 2026-04-22 22:01 | 31.55348 | -104.19307 | 34859 ft | 517 kts | 98° |
| 2026-04-22 22:01 | 31.54236 | -104.11046 | 34854 ft | 516 kts | 98° |
| 2026-04-22 22:02 | 31.53114 | -104.02743 | 34845 ft | 515 kts | 98° |
| 2026-04-22 22:02 | 31.51987 | -103.94455 | 34848 ft | 514 kts | 98° |
| 2026-04-22 22:03 | 31.50858 | -103.86185 | 34839 ft | 513 kts | 98° |
| 2026-04-22 22:03 | 31.49734 | -103.77992 | 34860 ft | 512 kts | 98° |
| 2026-04-22 22:04 | 31.48599 | -103.69757 | 34875 ft | 512 kts | 98° |
| 2026-04-22 22:04 | 31.47462 | -103.61543 | 34894 ft | 511 kts | 98° |
| 2026-04-22 22:05 | 31.46348 | -103.53324 | 34904 ft | 510 kts | 97° |
| 2026-04-22 22:05 | 31.45352 | -103.45104 | 34919 ft | 509 kts | 97° |
| 2026-04-22 22:06 | 31.44384 | -103.36953 | 34889 ft | 509 kts | 97° |
| 2026-04-22 22:06 | 31.43389 | -103.28754 | 34869 ft | 508 kts | 97° |
| 2026-04-22 22:07 | 31.42378 | -103.20559 | 34848 ft | 508 kts | 97° |
| 2026-04-22 22:07 | 31.41361 | -103.12381 | 34825 ft | 508 kts | 97° |
| 2026-04-22 22:08 | 31.40345 | -103.04255 | 34817 ft | 508 kts | 97° |
| 2026-04-22 22:08 | 31.39318 | -102.96076 | 34818 ft | 508 kts | 97° |
| 2026-04-22 22:09 | 31.38286 | -102.87900 | 34821 ft | 508 kts | 97° |
| 2026-04-22 22:09 | 31.37256 | -102.79782 | 34826 ft | 508 kts | 97° |
| 2026-04-22 22:10 | 31.36213 | -102.71606 | 34830 ft | 508 kts | 97° |
| 2026-04-22 22:10 | 31.35166 | -102.63437 | 34831 ft | 508 kts | 97° |
| 2026-04-22 22:11 | 31.34112 | -102.55258 | 34832 ft | 508 kts | 97° |
| 2026-04-22 22:11 | 31.33054 | -102.47084 | 34840 ft | 509 kts | 97° |
| 2026-04-22 22:12 | 31.31996 | -102.38957 | 34848 ft | 509 kts | 97° |
| 2026-04-22 22:12 | 31.30925 | -102.30774 | 34853 ft | 509 kts | 98° |
| 2026-04-22 22:13 | 31.29849 | -102.22595 | 34859 ft | 509 kts | 98° |
| 2026-04-22 22:13 | 31.28768 | -102.14416 | 34868 ft | 509 kts | 98° |
| 2026-04-22 22:14 | 31.27682 | -102.06233 | 34871 ft | 509 kts | 98° |
| 2026-04-22 22:14 | 31.26598 | -101.98114 | 34883 ft | 509 kts | 98° |
| 2026-04-22 22:15 | 31.25501 | -101.89940 | 34883 ft | 509 kts | 98° |
| 2026-04-22 22:15 | 31.24400 | -101.81774 | 34889 ft | 509 kts | 98° |
| 2026-04-22 22:16 | 31.23294 | -101.73609 | 34892 ft | 508 kts | 98° |
| 2026-04-22 22:16 | 31.22191 | -101.65507 | 34897 ft | 508 kts | 98° |
| 2026-04-22 22:17 | 31.21076 | -101.57354 | 34901 ft | 509 kts | 99° |
| 2026-04-22 22:17 | 31.19955 | -101.49195 | 34909 ft | 509 kts | 99° |
| 2026-04-22 22:18 | 31.18836 | -101.41090 | 34910 ft | 509 kts | 99° |
| 2026-04-22 22:18 | 31.17711 | -101.32929 | 34911 ft | 509 kts | 98° |
| 2026-04-22 22:19 | 31.16950 | -101.24703 | 34918 ft | 510 kts | 95° |
| 2026-04-22 22:19 | 31.16378 | -101.16450 | 34918 ft | 511 kts | 94° |
| 2026-04-22 22:20 | 31.15790 | -101.08180 | 34919 ft | 511 kts | 95° |
| 2026-04-22 22:20 | 31.15159 | -100.99904 | 34922 ft | 512 kts | 95° |
| 2026-04-22 22:21 | 31.14508 | -100.91671 | 34924 ft | 513 kts | 95° |
| 2026-04-22 22:21 | 31.13845 | -100.83370 | 34922 ft | 514 kts | 95° |
| 2026-04-22 22:22 | 31.13178 | -100.75060 | 34931 ft | 515 kts | 95° |
| 2026-04-22 22:22 | 31.12506 | -100.66736 | 34934 ft | 515 kts | 96° |
| 2026-04-22 22:23 | 31.11833 | -100.58462 | 34938 ft | 516 kts | 96° |
| 2026-04-22 22:23 | 31.11149 | -100.50125 | 34935 ft | 516 kts | 96° |
| 2026-04-22 22:24 | 31.10459 | -100.41783 | 34935 ft | 517 kts | 96° |
| 2026-04-22 22:24 | 31.09763 | -100.33429 | 34931 ft | 517 kts | 96° |
| 2026-04-22 22:25 | 31.09066 | -100.25134 | 34919 ft | 517 kts | 96° |
| 2026-04-22 22:25 | 31.08360 | -100.16790 | 34918 ft | 517 kts | 96° |
| 2026-04-22 22:26 | 31.07647 | -100.08440 | 34921 ft | 517 kts | 96° |
| 2026-04-22 22:26 | 31.06929 | -100.00088 | 34918 ft | 517 kts | 96° |
| 2026-04-22 22:27 | 31.06328 | -99.93149 | 34916 ft | 517 kts | 96° |
| 2026-04-22 22:27 | 31.05482 | -99.83445 | 34913 ft | 518 kts | 96° |
| 2026-04-22 22:28 | 31.04747 | -99.75090 | 34914 ft | 518 kts | 96° |
| 2026-04-22 22:28 | 31.04006 | -99.66732 | 34924 ft | 518 kts | 96° |
| 2026-04-22 22:29 | 31.03387 | -99.59784 | 34940 ft | 519 kts | 96° |
| 2026-04-22 22:29 | 31.02636 | -99.51420 | 34949 ft | 519 kts | 96° |
| 2026-04-22 22:30 | 31.01756 | -99.41708 | 34956 ft | 519 kts | 96° |
| 2026-04-22 22:30 | 31.01122 | -99.34752 | 34960 ft | 519 kts | 96° |
| 2026-04-22 22:31 | 31.00368 | -99.26533 | 34936 ft | 495 kts | 96° |
| 2026-04-22 22:31 | 31.00006 | -99.22603 | 34941 ft | 481 kts | 96° |
| 2026-04-22 22:31 | 30.99652 | -99.18780 | 34932 ft | 467 kts | 96° |
| 2026-04-22 22:31 | 30.99311 | -99.15103 | 34934 ft | 454 kts | 96° |
| 2026-04-22 22:32 | 30.98972 | -99.11465 | 34939 ft | 444 kts | 96° |
| 2026-04-22 22:32 | 30.98306 | -99.04349 | 34967 ft | 448 kts | 96° |
| 2026-04-22 22:33 | 30.97616 | -98.97019 | 34970 ft | 457 kts | 96° |
| 2026-04-22 22:33 | 30.96921 | -98.89669 | 34971 ft | 460 kts | 96° |
| 2026-04-22 22:34 | 30.96103 | -98.82305 | 34943 ft | 455 kts | 108° |
| 2026-04-22 22:34 | 30.94894 | -98.78970 | 34976 ft | 443 kts | 126° |
| 2026-04-22 22:34 | 30.92977 | -98.76231 | 34970 ft | 434 kts | 144° |
| 2026-04-22 22:34 | 30.90531 | -98.74247 | 34984 ft | 423 kts | 160° |
| 2026-04-22 22:35 | 30.87790 | -98.73125 | 34987 ft | 411 kts | 176° |
| 2026-04-22 22:35 | 30.85023 | -98.72880 | 34989 ft | 399 kts | 191° |
| 2026-04-22 22:35 | 30.82320 | -98.73449 | 34980 ft | 387 kts | 206° |
| 2026-04-22 22:35 | 30.79902 | -98.74736 | 34989 ft | 377 kts | 219° |
| 2026-04-22 22:36 | 30.77888 | -98.76591 | 34989 ft | 370 kts | 231° |
| 2026-04-22 22:36 | 30.76321 | -98.78912 | 34978 ft | 364 kts | 244° |
| 2026-04-22 22:36 | 30.75248 | -98.81530 | 34996 ft | 361 kts | 253° |
| 2026-04-22 22:37 | 30.74472 | -98.87241 | 34980 ft | 359 kts | 273° |
| 2026-04-22 22:37 | 30.74970 | -98.93028 | 34967 ft | 361 kts | 276° |
| 2026-04-22 22:38 | 30.75550 | -98.98810 | 34946 ft | 359 kts | 276° |
| 2026-04-22 22:38 | 30.76071 | -99.04492 | 34940 ft | 351 kts | 275° |
| 2026-04-22 22:39 | 30.76628 | -99.10132 | 34934 ft | 351 kts | 283° |
| 2026-04-22 22:39 | 30.77516 | -99.12773 | 34959 ft | 354 kts | 296° |
| 2026-04-22 22:39 | 30.78891 | -99.15161 | 34941 ft | 358 kts | 306° |
| 2026-04-22 22:40 | 30.82754 | -99.18881 | 34937 ft | 373 kts | 327° |
| 2026-04-22 22:40 | 30.85237 | -99.19942 | 34940 ft | 384 kts | 341° |
| 2026-04-22 22:40 | 30.87919 | -99.20246 | 34944 ft | 397 kts | 356° |
| 2026-04-22 22:40 | 30.90681 | -99.19719 | 34948 ft | 410 kts | 11° |
| 2026-04-22 22:41 | 30.93300 | -99.18335 | 34948 ft | 423 kts | 27° |
| 2026-04-22 22:41 | 30.95579 | -99.16122 | 34950 ft | 435 kts | 44° |
| 2026-04-22 22:41 | 30.97289 | -99.13202 | 34949 ft | 444 kts | 62° |
| 2026-04-22 22:41 | 30.98303 | -99.09780 | 34961 ft | 449 kts | 78° |
| 2026-04-22 22:42 | 30.98499 | -99.06152 | 34953 ft | 451 kts | 95° |
| 2026-04-22 22:42 | 30.97799 | -98.98893 | 34945 ft | 454 kts | 98° |
| 2026-04-22 22:43 | 30.97058 | -98.91543 | 34961 ft | 458 kts | 97° |
| 2026-04-22 22:43 | 30.96389 | -98.84134 | 34963 ft | 460 kts | 97° |
| 2026-04-22 22:43 | 30.95653 | -98.80533 | 34944 ft | 456 kts | 118° |
| 2026-04-22 22:44 | 30.94028 | -98.77475 | 34981 ft | 446 kts | 137° |
| 2026-04-22 22:44 | 30.91717 | -98.75118 | 34980 ft | 433 kts | 155° |
| 2026-04-22 22:44 | 30.89071 | -98.73666 | 34984 ft | 420 kts | 171° |
| 2026-04-22 22:44 | 30.86223 | -98.73092 | 34980 ft | 405 kts | 187° |
| 2026-04-22 22:45 | 30.83501 | -98.73385 | 34983 ft | 392 kts | 201° |
| 2026-04-22 22:45 | 30.80957 | -98.74463 | 34984 ft | 379 kts | 215° |
| 2026-04-22 22:45 | 30.78844 | -98.76137 | 34984 ft | 369 kts | 228° |
| 2026-04-22 22:45 | 30.77135 | -98.78349 | 34984 ft | 362 kts | 240° |
| 2026-04-22 22:46 | 30.75949 | -98.80877 | 34980 ft | 357 kts | 251° |
| 2026-04-22 22:46 | 30.74923 | -98.86417 | 34963 ft | 353 kts | 272° |
| 2026-04-22 22:47 | 30.75358 | -98.92097 | 34964 ft | 354 kts | 276° |
| 2026-04-22 22:47 | 30.75928 | -98.97771 | 34952 ft | 354 kts | 275° |
| 2026-04-22 22:48 | 30.76457 | -99.03494 | 34949 ft | 354 kts | 275° |
| 2026-04-22 22:48 | 30.76970 | -99.09157 | 34937 ft | 354 kts | 278° |
| 2026-04-22 22:48 | 30.77702 | -99.11871 | 34956 ft | 356 kts | 293° |
| 2026-04-22 22:49 | 30.79011 | -99.14356 | 34935 ft | 362 kts | 303° |
| 2026-04-22 22:49 | 30.80720 | -99.16504 | 34947 ft | 367 kts | 314° |
| 2026-04-22 22:49 | 30.82824 | -99.18234 | 34932 ft | 376 kts | 326° |
| 2026-04-22 22:49 | 30.85274 | -99.19357 | 34932 ft | 387 kts | 340° |
| 2026-04-22 22:50 | 30.87976 | -99.19724 | 34937 ft | 400 kts | 355° |
| 2026-04-22 22:50 | 30.90750 | -99.19235 | 34940 ft | 413 kts | 11° |
| 2026-04-22 22:50 | 30.93429 | -99.17829 | 34944 ft | 426 kts | 27° |
| 2026-04-22 22:50 | 30.95682 | -99.15618 | 34945 ft | 438 kts | 45° |
| 2026-04-22 22:51 | 30.97388 | -99.12624 | 34945 ft | 446 kts | 63° |
| 2026-04-22 22:51 | 30.98351 | -99.09149 | 34957 ft | 450 kts | 80° |
| 2026-04-22 22:51 | 30.98453 | -99.05528 | 34957 ft | 451 kts | 96° |
| 2026-04-22 22:52 | 30.97737 | -98.98261 | 34947 ft | 454 kts | 98° |
| 2026-04-22 22:52 | 30.97000 | -98.90915 | 34959 ft | 459 kts | 97° |
| 2026-04-22 22:53 | 30.96328 | -98.83527 | 34965 ft | 462 kts | 99° |
| 2026-04-22 22:53 | 30.95439 | -98.79974 | 34959 ft | 455 kts | 121° |
| 2026-04-22 22:53 | 30.93683 | -98.76984 | 34970 ft | 444 kts | 140° |
| 2026-04-22 22:53 | 30.91327 | -98.74764 | 34985 ft | 431 kts | 157° |
| 2026-04-22 22:54 | 30.88659 | -98.73413 | 34983 ft | 417 kts | 173° |
| 2026-04-22 22:54 | 30.85849 | -98.72928 | 34983 ft | 402 kts | 188° |
| 2026-04-22 22:54 | 30.83110 | -98.73284 | 34981 ft | 388 kts | 202° |
| 2026-04-22 22:54 | 30.80641 | -98.74376 | 34992 ft | 376 kts | 216° |
| 2026-04-22 22:55 | 30.78522 | -98.76083 | 34992 ft | 366 kts | 229° |
| 2026-04-22 22:55 | 30.76858 | -98.78245 | 34976 ft | 358 kts | 240° |
| 2026-04-22 22:55 | 30.74887 | -98.83445 | 34969 ft | 351 kts | 258° |
| 2026-04-22 22:56 | 30.74589 | -98.86231 | 34960 ft | 350 kts | 271° |
| 2026-04-22 22:56 | 30.74736 | -98.89058 | 34971 ft | 350 kts | 274° |
| 2026-04-22 22:56 | 30.75279 | -98.94652 | 34973 ft | 350 kts | 275° |
| 2026-04-22 22:57 | 30.75822 | -99.00248 | 34945 ft | 349 kts | 275° |
| 2026-04-22 22:57 | 30.76329 | -99.05875 | 34940 ft | 348 kts | 275° |
| 2026-04-22 22:58 | 30.77135 | -99.11397 | 34934 ft | 351 kts | 290° |
| 2026-04-22 22:58 | 30.79852 | -99.16122 | 34944 ft | 361 kts | 309° |
| 2026-04-22 22:59 | 30.81812 | -99.18017 | 34929 ft | 370 kts | 321° |
| 2026-04-22 22:59 | 30.84135 | -99.19378 | 34930 ft | 381 kts | 334° |
| 2026-04-22 22:59 | 30.86725 | -99.20043 | 34929 ft | 394 kts | 348° |
| 2026-04-22 22:59 | 30.89533 | -99.19897 | 34935 ft | 408 kts | 4° |
| 2026-04-22 23:00 | 30.92275 | -99.18867 | 34942 ft | 422 kts | 20° |
| 2026-04-22 23:00 | 30.94739 | -99.16975 | 34942 ft | 435 kts | 37° |
| 2026-04-22 23:00 | 30.96735 | -99.14263 | 34940 ft | 445 kts | 56° |
| 2026-04-22 23:00 | 30.98020 | -99.10980 | 34966 ft | 454 kts | 72° |
| 2026-04-22 23:01 | 30.98536 | -99.07308 | 34932 ft | 460 kts | 91° |
| 2026-04-22 23:01 | 30.98293 | -99.03594 | 34978 ft | 462 kts | 97° |
| 2026-04-22 23:01 | 30.97516 | -98.96170 | 34960 ft | 467 kts | 98° |
| 2026-04-22 23:02 | 30.96795 | -98.88679 | 34940 ft | 459 kts | 97° |
| 2026-04-22 23:02 | 30.95924 | -98.81395 | 34932 ft | 452 kts | 113° |
| 2026-04-22 23:03 | 30.94514 | -98.78203 | 34992 ft | 440 kts | 133° |
| 2026-04-22 23:03 | 30.92446 | -98.75693 | 34966 ft | 427 kts | 150° |
| 2026-04-22 23:03 | 30.89957 | -98.73971 | 34983 ft | 413 kts | 166° |
| 2026-04-22 23:03 | 30.87211 | -98.73064 | 34981 ft | 399 kts | 181° |
| 2026-04-22 23:04 | 30.84509 | -98.72997 | 34987 ft | 386 kts | 195° |
| 2026-04-22 23:04 | 30.81943 | -98.73684 | 34986 ft | 374 kts | 209° |
| 2026-04-22 23:04 | 30.79679 | -98.75012 | 34976 ft | 364 kts | 221° |
| 2026-04-22 23:04 | 30.77758 | -98.76899 | 34992 ft | 357 kts | 233° |
| 2026-04-22 23:05 | 30.76296 | -98.79177 | 34974 ft | 352 kts | 245° |
| 2026-04-22 23:05 | 30.75282 | -98.81739 | 34987 ft | 350 kts | 253° |
| 2026-04-22 23:05 | 30.74557 | -98.87283 | 34978 ft | 350 kts | 272° |
| 2026-04-22 23:06 | 30.75035 | -98.92914 | 34971 ft | 353 kts | 275° |
| 2026-04-22 23:06 | 30.75602 | -98.98624 | 34948 ft | 355 kts | 275° |
| 2026-04-22 23:07 | 30.76123 | -99.04304 | 34942 ft | 355 kts | 275° |
| 2026-04-22 23:07 | 30.76669 | -99.09936 | 34917 ft | 348 kts | 282° |
| 2026-04-22 23:08 | 30.77527 | -99.12558 | 34947 ft | 350 kts | 295° |
| 2026-04-22 23:08 | 30.78877 | -99.14950 | 34929 ft | 357 kts | 304° |
| 2026-04-22 23:08 | 30.82721 | -99.18739 | 34928 ft | 375 kts | 326° |
| 2026-04-22 23:09 | 30.85168 | -99.19821 | 34931 ft | 387 kts | 340° |
| 2026-04-22 23:09 | 30.87893 | -99.20160 | 34935 ft | 401 kts | 355° |
| 2026-04-22 23:09 | 30.90685 | -99.19642 | 34938 ft | 416 kts | 11° |
| 2026-04-22 23:09 | 30.93345 | -99.18237 | 34945 ft | 429 kts | 27° |
| 2026-04-22 23:10 | 30.95656 | -99.15971 | 34941 ft | 441 kts | 45° |
| 2026-04-22 23:10 | 30.97379 | -99.12949 | 34940 ft | 450 kts | 63° |
| 2026-04-22 23:10 | 30.98352 | -99.09483 | 34954 ft | 454 kts | 79° |
| 2026-04-22 23:10 | 30.98483 | -99.05856 | 34947 ft | 454 kts | 96° |
| 2026-04-22 23:11 | 30.97760 | -98.98517 | 34940 ft | 456 kts | 98° |
| 2026-04-22 23:11 | 30.97025 | -98.91186 | 34949 ft | 458 kts | 97° |
| 2026-04-22 23:12 | 30.96357 | -98.83797 | 34952 ft | 458 kts | 98° |
| 2026-04-22 23:12 | 30.95533 | -98.80242 | 34949 ft | 451 kts | 120° |
| 2026-04-22 23:12 | 30.93847 | -98.77273 | 34971 ft | 439 kts | 139° |
| 2026-04-22 23:13 | 30.91553 | -98.75057 | 34978 ft | 425 kts | 156° |
| 2026-04-22 23:13 | 30.88889 | -98.73683 | 34982 ft | 411 kts | 173° |
| 2026-04-22 23:13 | 30.86142 | -98.73196 | 34979 ft | 396 kts | 188° |
| 2026-04-22 23:13 | 30.83460 | -98.73534 | 34978 ft | 382 kts | 202° |
| 2026-04-22 23:14 | 30.81002 | -98.74617 | 34984 ft | 370 kts | 216° |
| 2026-04-22 23:14 | 30.78929 | -98.76291 | 34996 ft | 360 kts | 229° |
| 2026-04-22 23:14 | 30.77297 | -98.78423 | 34975 ft | 353 kts | 240° |
| 2026-04-22 23:14 | 30.76125 | -98.80924 | 34977 ft | 349 kts | 251° |
| 2026-04-22 23:15 | 30.75098 | -98.86349 | 34959 ft | 346 kts | 271° |
| 2026-04-22 23:15 | 30.75508 | -98.91901 | 34965 ft | 348 kts | 276° |
| 2026-04-22 23:16 | 30.76072 | -98.97510 | 34946 ft | 351 kts | 275° |
| 2026-04-22 23:16 | 30.76597 | -99.03162 | 34942 ft | 353 kts | 275° |
| 2026-04-22 23:17 | 30.77109 | -99.08871 | 34930 ft | 355 kts | 277° |
| 2026-04-22 23:17 | 30.77799 | -99.11605 | 34931 ft | 358 kts | 293° |
| 2026-04-22 23:17 | 30.79070 | -99.14085 | 34920 ft | 363 kts | 303° |
| 2026-04-22 23:18 | 30.80783 | -99.16273 | 34932 ft | 368 kts | 314° |
| 2026-04-22 23:18 | 30.82888 | -99.18023 | 34918 ft | 377 kts | 326° |
| 2026-04-22 23:18 | 30.85337 | -99.19157 | 34919 ft | 387 kts | 340° |
| 2026-04-22 23:18 | 30.88035 | -99.19528 | 34935 ft | 398 kts | 355° |
| 2026-04-22 23:19 | 30.90805 | -99.19038 | 34932 ft | 410 kts | 11° |
| 2026-04-22 23:19 | 30.93428 | -99.17662 | 34932 ft | 422 kts | 27° |
| 2026-04-22 23:19 | 30.95682 | -99.15453 | 34936 ft | 432 kts | 45° |
| 2026-04-22 23:19 | 30.97361 | -99.12513 | 34935 ft | 440 kts | 63° |
| 2026-04-22 23:20 | 30.98313 | -99.09148 | 34945 ft | 443 kts | 79° |
| 2026-04-22 23:20 | 30.98447 | -99.05542 | 34945 ft | 443 kts | 96° |
| 2026-04-22 23:20 | 30.97754 | -98.98440 | 34936 ft | 444 kts | 97° |
| 2026-04-22 23:21 | 30.97032 | -98.91253 | 34947 ft | 446 kts | 96° |
| 2026-04-22 23:21 | 30.96384 | -98.84081 | 34957 ft | 447 kts | 97° |
| 2026-04-22 23:22 | 30.95656 | -98.80621 | 34941 ft | 443 kts | 118° |
| 2026-04-22 23:22 | 30.94040 | -98.77626 | 34971 ft | 434 kts | 137° |
| 2026-04-22 23:22 | 30.91802 | -98.75367 | 34976 ft | 422 kts | 154° |
| 2026-04-22 23:22 | 30.89160 | -98.73939 | 34977 ft | 410 kts | 171° |
| 2026-04-22 23:23 | 30.86420 | -98.73414 | 34979 ft | 397 kts | 187° |
| 2026-04-22 23:23 | 30.83715 | -98.73738 | 34988 ft | 384 kts | 201° |
| 2026-04-22 23:23 | 30.81286 | -98.74805 | 34991 ft | 374 kts | 216° |
| 2026-04-22 23:23 | 30.79181 | -98.76528 | 34990 ft | 365 kts | 229° |
| 2026-04-22 23:24 | 30.77541 | -98.78741 | 34983 ft | 358 kts | 241° |
| 2026-04-22 23:24 | 30.76418 | -98.81257 | 34983 ft | 354 kts | 251° |
| 2026-04-22 23:24 | 30.75532 | -98.86834 | 34969 ft | 352 kts | 273° |
| 2026-04-22 23:25 | 30.75998 | -98.92484 | 34955 ft | 354 kts | 276° |
| 2026-04-22 23:25 | 30.76572 | -98.98181 | 34944 ft | 356 kts | 276° |
| 2026-04-22 23:26 | 30.77102 | -99.03946 | 34937 ft | 358 kts | 276° |
| 2026-04-22 23:26 | 30.77685 | -99.09649 | 34910 ft | 358 kts | 284° |
| 2026-04-22 23:27 | 30.78639 | -99.12323 | 34933 ft | 360 kts | 298° |
| 2026-04-22 23:27 | 30.80100 | -99.14683 | 34926 ft | 364 kts | 308° |
| 2026-04-22 23:27 | 30.81996 | -99.16691 | 34925 ft | 369 kts | 320° |
| 2026-04-22 23:27 | 30.84258 | -99.18164 | 34917 ft | 377 kts | 333° |
| 2026-04-22 23:28 | 30.86798 | -99.18942 | 34920 ft | 387 kts | 348° |
| 2026-04-22 23:28 | 30.89500 | -99.18917 | 34924 ft | 398 kts | 3° |
| 2026-04-22 23:28 | 30.92184 | -99.18021 | 34930 ft | 409 kts | 19° |
| 2026-04-22 23:28 | 30.94632 | -99.16251 | 34931 ft | 419 kts | 36° |
| 2026-04-22 23:29 | 30.96582 | -99.13738 | 34934 ft | 428 kts | 53° |
| 2026-04-22 23:29 | 30.97892 | -99.10597 | 34942 ft | 433 kts | 70° |
| 2026-04-22 23:29 | 30.98463 | -99.07136 | 34921 ft | 437 kts | 89° |
| 2026-04-22 23:29 | 30.98288 | -99.03630 | 34961 ft | 436 kts | 96° |
| 2026-04-22 23:30 | 30.97563 | -98.96590 | 34939 ft | 439 kts | 97° |
| 2026-04-22 23:30 | 30.96874 | -98.89533 | 34947 ft | 441 kts | 96° |
| 2026-04-22 23:31 | 30.96153 | -98.82405 | 34942 ft | 442 kts | 107° |
| 2026-04-22 23:31 | 30.94959 | -98.79139 | 34975 ft | 435 kts | 127° |
| 2026-04-22 23:31 | 30.93021 | -98.76533 | 34964 ft | 427 kts | 146° |
| 2026-04-22 23:32 | 30.90551 | -98.74715 | 34980 ft | 416 kts | 163° |
| 2026-04-22 23:32 | 30.87826 | -98.73793 | 34978 ft | 404 kts | 180° |
| 2026-04-22 23:32 | 30.85060 | -98.73774 | 34985 ft | 392 kts | 195° |
| 2026-04-22 23:32 | 30.82487 | -98.74586 | 34986 ft | 381 kts | 210° |
| 2026-04-22 23:33 | 30.80238 | -98.76112 | 34986 ft | 371 kts | 224° |
| 2026-04-22 23:33 | 30.78446 | -98.78188 | 34984 ft | 363 kts | 238° |
| 2026-04-22 23:33 | 30.77157 | -98.80702 | 34981 ft | 358 kts | 250° |
| 2026-04-22 23:33 | 30.76347 | -98.83414 | 34982 ft | 356 kts | 259° |
| 2026-04-22 23:34 | 30.76062 | -98.86241 | 34967 ft | 354 kts | 272° |
| 2026-04-22 23:34 | 30.76225 | -98.89097 | 34967 ft | 355 kts | 276° |
| 2026-04-22 23:34 | 30.76793 | -98.94784 | 34951 ft | 357 kts | 277° |
| 2026-04-22 23:35 | 30.77353 | -99.00557 | 34938 ft | 358 kts | 276° |
| 2026-04-22 23:35 | 30.77867 | -99.06292 | 34923 ft | 359 kts | 276° |
| 2026-04-22 23:36 | 30.79099 | -99.11830 | 34935 ft | 359 kts | 298° |
| 2026-04-22 23:36 | 30.80578 | -99.14217 | 34913 ft | 363 kts | 309° |
| 2026-04-22 23:36 | 30.82440 | -99.16155 | 34921 ft | 368 kts | 322° |
| 2026-04-22 23:37 | 30.84783 | -99.17457 | 34932 ft | 382 kts | 338° |
| 2026-04-22 23:37 | 30.87445 | -99.18014 | 34925 ft | 397 kts | 352° |
| 2026-04-22 23:37 | 30.90250 | -99.17760 | 34937 ft | 413 kts | 8° |
| 2026-04-22 23:37 | 30.92992 | -99.16563 | 34932 ft | 431 kts | 25° |
| 2026-04-22 23:38 | 30.95387 | -99.14386 | 34949 ft | 447 kts | 43° |
| 2026-04-22 23:38 | 30.97221 | -99.11402 | 34943 ft | 460 kts | 60° |
| 2026-04-22 23:38 | 30.98370 | -99.07896 | 34948 ft | 470 kts | 74° |
| 2026-04-22 23:38 | 30.98809 | -99.04143 | 34933 ft | 478 kts | 89° |
| 2026-04-22 23:39 | 30.97991 | -98.96389 | 34949 ft | 488 kts | 101° |
| 2026-04-22 23:39 | 30.96850 | -98.88526 | 34954 ft | 497 kts | 98° |
| 2026-04-22 23:40 | 30.95949 | -98.80471 | 34963 ft | 505 kts | 98° |
| 2026-04-22 23:40 | 30.94845 | -98.72394 | 34968 ft | 511 kts | 99° |
| 2026-04-22 23:41 | 30.93657 | -98.64209 | 34965 ft | 513 kts | 99° |
| 2026-04-22 23:41 | 30.92492 | -98.56013 | 34968 ft | 513 kts | 99° |
| 2026-04-22 23:42 | 30.91343 | -98.47808 | 34963 ft | 513 kts | 99° |
| 2026-04-22 23:42 | 30.90195 | -98.39614 | 34979 ft | 512 kts | 99° |
| 2026-04-22 23:43 | 30.89048 | -98.31488 | 34979 ft | 511 kts | 99° |
| 2026-04-22 23:43 | 30.87891 | -98.23334 | 34982 ft | 510 kts | 99° |
| 2026-04-22 23:44 | 30.86733 | -98.15209 | 34969 ft | 501 kts | 99° |
| 2026-04-22 23:44 | 30.86170 | -98.11275 | 34962 ft | 485 kts | 99° |
| 2026-04-22 23:44 | 30.85623 | -98.07458 | 34963 ft | 474 kts | 99° |
| 2026-04-22 23:45 | 30.84548 | -97.99977 | 34802 ft | 473 kts | 99° |
| 2026-04-22 23:45 | 30.84006 | -97.96217 | 34472 ft | 469 kts | 99° |
| 2026-04-22 23:45 | 30.83467 | -97.92497 | 34108 ft | 464 kts | 99° |
| 2026-04-22 23:46 | 30.82936 | -97.88861 | 33707 ft | 461 kts | 99° |
| 2026-04-22 23:46 | 30.82390 | -97.85148 | 33273 ft | 458 kts | 99° |
| 2026-04-22 23:46 | 30.81854 | -97.81517 | 32870 ft | 454 kts | 99° |
| 2026-04-22 23:46 | 30.81321 | -97.77907 | 32473 ft | 451 kts | 99° |
| 2026-04-22 23:47 | 30.80798 | -97.74367 | 32085 ft | 448 kts | 99° |
| 2026-04-22 23:47 | 30.80271 | -97.70806 | 31699 ft | 446 kts | 99° |
| 2026-04-22 23:47 | 30.79754 | -97.67321 | 31320 ft | 443 kts | 99° |
| 2026-04-22 23:47 | 30.79225 | -97.63752 | 30936 ft | 440 kts | 99° |
| 2026-04-22 23:48 | 30.78704 | -97.60251 | 30555 ft | 438 kts | 99° |
| 2026-04-22 23:48 | 30.78185 | -97.56767 | 30172 ft | 436 kts | 99° |
| 2026-04-22 23:48 | 30.77667 | -97.53299 | 29730 ft | 434 kts | 99° |
| 2026-04-22 23:48 | 30.77152 | -97.49854 | 29296 ft | 431 kts | 99° |
| 2026-04-22 23:49 | 30.76639 | -97.46430 | 28885 ft | 428 kts | 99° |
| 2026-04-22 23:49 | 30.76135 | -97.43077 | 28482 ft | 425 kts | 99° |
| 2026-04-22 23:49 | 30.75628 | -97.39707 | 28084 ft | 422 kts | 99° |
| 2026-04-22 23:49 | 30.75124 | -97.36358 | 27685 ft | 419 kts | 99° |
| 2026-04-22 23:50 | 30.74624 | -97.33050 | 27294 ft | 416 kts | 99° |
| 2026-04-22 23:50 | 30.74124 | -97.29742 | 26904 ft | 413 kts | 99° |
| 2026-04-22 23:50 | 30.73628 | -97.26465 | 26518 ft | 410 kts | 99° |
| 2026-04-22 23:50 | 30.73134 | -97.23208 | 26135 ft | 408 kts | 99° |
| 2026-04-22 23:51 | 30.72642 | -97.19972 | 25755 ft | 406 kts | 99° |
| 2026-04-22 23:51 | 30.72151 | -97.16747 | 25371 ft | 404 kts | 99° |
| 2026-04-22 23:51 | 30.71669 | -97.13588 | 25004 ft | 402 kts | 99° |
| 2026-04-22 23:51 | 30.71183 | -97.10400 | 24629 ft | 400 kts | 99° |
| 2026-04-22 23:52 | 30.70697 | -97.07225 | 24238 ft | 398 kts | 99° |
| 2026-04-22 23:52 | 30.70213 | -97.04068 | 23862 ft | 397 kts | 99° |
| 2026-04-22 23:52 | 30.69728 | -97.00915 | 23493 ft | 395 kts | 99° |
| 2026-04-22 23:52 | 30.69245 | -96.97778 | 23072 ft | 393 kts | 99° |
| 2026-04-22 23:53 | 30.68764 | -96.94664 | 22682 ft | 391 kts | 99° |
| 2026-04-22 23:53 | 30.68286 | -96.91569 | 22312 ft | 388 kts | 99° |
| 2026-04-22 23:53 | 30.67811 | -96.88498 | 21955 ft | 384 kts | 99° |
| 2026-04-22 23:53 | 30.67347 | -96.85498 | 21606 ft | 381 kts | 99° |
| 2026-04-22 23:54 | 30.66879 | -96.82481 | 21275 ft | 378 kts | 99° |
| 2026-04-22 23:54 | 30.66413 | -96.79482 | 20931 ft | 375 kts | 99° |
| 2026-04-22 23:54 | 30.65953 | -96.76517 | 20592 ft | 372 kts | 99° |
| 2026-04-22 23:54 | 30.65493 | -96.73564 | 20256 ft | 370 kts | 99° |
| 2026-04-22 23:55 | 30.65036 | -96.70642 | 19923 ft | 367 kts | 99° |
| 2026-04-22 23:55 | 30.64578 | -96.67725 | 19580 ft | 365 kts | 99° |
| 2026-04-22 23:55 | 30.64123 | -96.64838 | 19244 ft | 363 kts | 99° |
| 2026-04-22 23:55 | 30.63675 | -96.62002 | 18940 ft | 361 kts | 99° |
| 2026-04-22 23:56 | 30.63223 | -96.59148 | 18622 ft | 359 kts | 99° |
| 2026-04-22 23:56 | 30.62773 | -96.56302 | 18303 ft | 357 kts | 99° |
| 2026-04-22 23:56 | 30.62325 | -96.53472 | 17943 ft | 356 kts | 99° |
| 2026-04-22 23:56 | 30.61879 | -96.50660 | 17604 ft | 353 kts | 99° |
| 2026-04-22 23:57 | 30.61436 | -96.47870 | 17279 ft | 350 kts | 99° |
| 2026-04-22 23:57 | 30.60996 | -96.45103 | 16967 ft | 347 kts | 99° |
| 2026-04-22 23:57 | 30.60471 | -96.42384 | 16630 ft | 346 kts | 110° |
| 2026-04-22 23:57 | 30.59309 | -96.39998 | 16334 ft | 342 kts | 126° |
| 2026-04-22 23:58 | 30.57902 | -96.37785 | 16022 ft | 340 kts | 127° |
| 2026-04-22 23:58 | 30.56478 | -96.35604 | 15709 ft | 338 kts | 127° |
| 2026-04-22 23:58 | 30.55065 | -96.33424 | 15402 ft | 337 kts | 127° |
| 2026-04-22 23:58 | 30.53674 | -96.31246 | 15096 ft | 336 kts | 126° |
| 2026-04-22 23:59 | 30.52293 | -96.29068 | 14787 ft | 335 kts | 126° |
| 2026-04-22 23:59 | 30.50918 | -96.26896 | 14473 ft | 334 kts | 126° |
| 2026-04-22 23:59 | 30.49544 | -96.24726 | 14151 ft | 333 kts | 126° |
| 2026-04-22 23:59 | 30.48174 | -96.22564 | 13824 ft | 332 kts | 126° |
| 2026-04-23 00:00 | 30.45469 | -96.18298 | 13136 ft | 329 kts | 126° |
| 2026-04-23 00:00 | 30.44118 | -96.16169 | 12795 ft | 327 kts | 126° |
| 2026-04-23 00:00 | 30.42775 | -96.14054 | 12457 ft | 325 kts | 126° |
| 2026-04-23 00:01 | 30.41438 | -96.11948 | 12131 ft | 323 kts | 126° |
| 2026-04-23 00:01 | 30.40112 | -96.09860 | 11830 ft | 321 kts | 127° |
| 2026-04-23 00:01 | 30.38791 | -96.07783 | 11538 ft | 318 kts | 127° |
| 2026-04-23 00:01 | 30.37501 | -96.05756 | 11264 ft | 315 kts | 127° |
| 2026-04-23 00:02 | 30.36065 | -96.03898 | 11138 ft | 305 kts | 144° |
| 2026-04-23 00:02 | 30.34228 | -96.02772 | 10982 ft | 296 kts | 162° |
| 2026-04-23 00:02 | 30.32280 | -96.02031 | 10735 ft | 294 kts | 165° |
| 2026-04-23 00:02 | 30.30325 | -96.01340 | 10441 ft | 293 kts | 165° |
| 2026-04-23 00:03 | 30.28379 | -96.00655 | 10176 ft | 292 kts | 165° |
| 2026-04-23 00:03 | 30.26442 | -95.99963 | 9911 ft | 290 kts | 165° |
| 2026-04-23 00:03 | 30.24521 | -95.99268 | 9642 ft | 289 kts | 164° |
| 2026-04-23 00:03 | 30.22610 | -95.98571 | 9358 ft | 287 kts | 164° |
| 2026-04-23 00:04 | 30.20713 | -95.97875 | 9105 ft | 285 kts | 164° |
| 2026-04-23 00:04 | 30.18871 | -95.97199 | 8976 ft | 277 kts | 164° |
| 2026-04-23 00:04 | 30.17059 | -95.96532 | 8887 ft | 269 kts | 164° |
| 2026-04-23 00:04 | 30.15309 | -95.95881 | 8821 ft | 260 kts | 160° |
| 2026-04-23 00:05 | 30.13840 | -95.94741 | 8699 ft | 255 kts | 131° |
| 2026-04-23 00:05 | 30.12940 | -95.93009 | 8529 ft | 250 kts | 113° |
| 2026-04-23 00:05 | 30.12283 | -95.91151 | 8279 ft | 250 kts | 112° |
| 2026-04-23 00:05 | 30.11654 | -95.89285 | 8071 ft | 249 kts | 111° |
| 2026-04-23 00:06 | 30.11028 | -95.87426 | 7843 ft | 247 kts | 111° |
| 2026-04-23 00:06 | 30.10405 | -95.85584 | 7626 ft | 246 kts | 112° |
| 2026-04-23 00:06 | 30.09779 | -95.83748 | 7407 ft | 245 kts | 112° |
| 2026-04-23 00:06 | 30.09155 | -95.81926 | 7192 ft | 243 kts | 112° |
| 2026-04-23 00:07 | 30.08543 | -95.80147 | 7004 ft | 241 kts | 112° |
| 2026-04-23 00:07 | 30.07929 | -95.78366 | 6786 ft | 240 kts | 112° |
| 2026-04-23 00:07 | 30.07312 | -95.76579 | 6636 ft | 235 kts | 112° |
| 2026-04-23 00:07 | 30.06721 | -95.74875 | 6584 ft | 225 kts | 113° |
| 2026-04-23 00:08 | 30.06149 | -95.73221 | 6514 ft | 216 kts | 112° |
| 2026-04-23 00:08 | 30.05605 | -95.71652 | 6445 ft | 206 kts | 113° |
| 2026-04-23 00:08 | 30.05082 | -95.70147 | 6357 ft | 197 kts | 113° |
| 2026-04-23 00:08 | 30.04568 | -95.68668 | 6215 ft | 211 kts | 113° |
| 2026-04-23 00:09 | 30.03987 | -95.66999 | 6242 ft | 231 kts | 112° |
| 2026-04-23 00:09 | 30.03403 | -95.65321 | 6243 ft | 225 kts | 112° |
| 2026-04-23 00:09 | 30.02839 | -95.63696 | 6169 ft | 211 kts | 113° |
| 2026-04-23 00:09 | 30.02309 | -95.62170 | 6078 ft | 198 kts | 113° |
| 2026-04-23 00:10 | 30.01813 | -95.60744 | 5895 ft | 190 kts | 113° |
| 2026-04-23 00:10 | 30.01316 | -95.59319 | 5455 ft | 197 kts | 114° |
| 2026-04-23 00:10 | 30.00840 | -95.57749 | 4710 ft | 217 kts | 99° |
| 2026-04-23 00:10 | 30.00962 | -95.55950 | 3993 ft | 233 kts | 81° |
| 2026-04-23 00:11 | 30.01615 | -95.54198 | 3429 ft | 237 kts | 65° |
| 2026-04-23 00:11 | 30.01893 | -95.52457 | 3273 ft | 217 kts | 99° |
| 2026-04-23 00:11 | 30.01432 | -95.50802 | 2727 ft | 220 kts | 116° |
| 2026-04-23 00:11 | 30.00705 | -95.49259 | 2262 ft | 221 kts | 121° |
| 2026-04-23 00:12 | 30.00029 | -95.47728 | 2076 ft | 208 kts | 118° |
| 2026-04-23 00:12 | 29.99407 | -95.46287 | 1782 ft | 195 kts | 111° |
| 2026-04-23 00:12 | 29.99288 | -95.44787 | 1572 ft | 175 kts | 94° |
| 2026-04-23 00:12 | 29.99258 | -95.43496 | 1444 ft | 150 kts | 91° |
| 2026-04-23 00:13 | 29.99283 | -95.42386 | 1341 ft | 136 kts | 91° |
| 2026-04-23 00:13 | 29.99300 | -95.41227 | 1156 ft | 147 kts | 90° |
| 2026-04-23 00:13 | 29.99312 | -95.40065 | 987 ft | 145 kts | 92° |
| 2026-04-23 00:13 | 29.99324 | -95.38896 | 728 ft | 145 kts | 92° |
| 2026-04-23 00:14 | 29.99338 | -95.37763 | 467 ft | 140 kts | 92° |
| 2026-04-23 00:14 | 29.99345 | -95.36666 | 266 ft | 136 kts | 93° |
| 2026-04-23 00:14 | 29.99347 | -95.35631 | 140 ft | 119 kts | 94° |
| 2026-04-23 00:14 | 29.99342 | -95.34777 | 102 ft | 94 kts | 90° |
| 2026-04-23 00:15 | 29.99343 | -95.34160 | 100 ft | 63 kts | 90° |
| 2026-04-23 00:15 | 29.99343 | -95.33687 | 102 ft | 55 kts | 90° |
| 2026-04-23 00:15 | 29.99303 | -95.33273 | 102 ft | 37 kts | 114° |
| 2026-04-23 00:15 | 29.99246 | -95.33154 | 101 ft | 0 kts | 123° |
| 2026-04-23 00:16 | 29.99241 | -95.33145 | 101 ft | 8 kts | 123° |
| 2026-04-23 00:16 | 29.99192 | -95.33052 | 100 ft | 15 kts | 123° |
| 2026-04-23 00:16 | 29.99096 | -95.33024 | 100 ft | 14 kts | 179° |
| 2026-04-23 00:16 | 29.98990 | -95.33025 | 100 ft | 18 kts | 181° |
| 2026-04-23 00:17 | 29.98844 | -95.33025 | 100 ft | 24 kts | 179° |
| 2026-04-23 00:17 | 29.98659 | -95.33022 | 100 ft | 29 kts | 185° |
| 2026-04-23 00:17 | 29.98463 | -95.33026 | 99 ft | 27 kts | 180° |
| 2026-04-23 00:17 | 29.98304 | -95.33065 | 98 ft | 22 kts | 249° |
| 2026-04-23 00:18 | 29.98301 | -95.33238 | 99 ft | 21 kts | 270° |
| 2026-04-23 00:18 | 29.98332 | -95.33372 | 99 ft | 14 kts | 352° |
| 2026-04-23 00:18 | 29.98425 | -95.33374 | 99 ft | 12 kts | 1° |
| 2026-04-23 00:18 | 29.98440 | -95.33373 | 99 ft | 0 kts | 8° |
| 2026-04-23 00:19 | 29.98460 | -95.33355 | 99 ft | 9 kts | 60° |
| 2026-04-23 00:19 | 29.98480 | -95.33277 | 99 ft | 0 kts | 76° |
| 2026-04-23 00:19 | 29.98482 | -95.33270 | 99 ft | 0 kts | 75° |